Time;durP1;ratioP1;P1;durP2;ratioP2;P2;SDS_P1;SDS_P2;PMS_P1;PMS_P2;Temp;Humidity;BMP_temperature;BMP_pressure;BME280_temperature;BME280_humidity;BME280_pressure;Samples;Min_cycle;Max_cycle;Signal;HPM_P1;HPM_P2
2024/03/04 00:01:34;;;;;;;20.73;14.07;;;6.50;96.60;;;6.09;99.60;96588.28;5060875;28;20496;-72
2024/03/04 00:04:01;;;;;;;23.90;14.50;;;6.50;97.00;;;5.53;100.00;96536.38;5060081;28;20469;-72
2024/03/04 00:06:29;;;;;;;19.93;14.33;;;6.50;95.90;;;5.85;100.00;96599.81;5066007;28;21016;-72
2024/03/04 00:08:56;;;;;;;20.57;14.70;;;6.40;96.50;;;5.91;100.00;96602.44;5064392;28;20886;-71
2024/03/04 00:11:26;;;;;;;18.70;14.37;;;6.40;97.50;;;5.83;100.00;96602.72;5056929;28;20919;-72
2024/03/04 00:13:54;;;;;;;20.13;15.27;;;6.30;97.20;;;5.79;100.00;96606.88;5058462;28;21283;-72
2024/03/04 00:16:21;;;;;;;20.97;14.40;;;6.30;97.50;;;5.72;100.00;96606.94;5061050;28;20815;-71
2024/03/04 00:18:48;;;;;;;24.20;16.47;;;6.20;97.80;;;5.74;100.00;96606.72;5054906;28;20519;-73
2024/03/04 00:21:16;;;;;;;25.83;15.97;;;6.30;98.40;;;5.63;100.00;96614.41;5061299;28;21146;-72
2024/03/04 00:23:44;;;;;;;26.70;15.33;;;6.20;98.10;;;5.55;100.00;96612.03;5062394;28;20477;-72
2024/03/04 00:26:12;;;;;;;21.00;15.00;;;6.20;98.00;;;5.51;100.00;96610.81;5062393;28;20462;-72
2024/03/04 00:28:41;;;;;;;23.27;15.40;;;6.10;98.10;;;5.45;100.00;96611.69;5059445;28;20468;-72
2024/03/04 00:31:09;;;;;;;19.40;15.03;;;6.00;98.10;;;5.45;100.00;96620.53;5063971;28;20486;-72
2024/03/04 00:33:40;;;;;;;21.50;15.50;;;6.00;98.80;;;5.36;100.00;96614.59;5060938;28;20449;-72
2024/03/04 00:36:08;;;;;;;21.60;16.90;;;5.90;98.80;;;5.44;100.00;96620.75;5059878;28;21028;-71
2024/03/04 00:38:35;;;;;;;22.93;16.20;;;5.90;99.60;;;5.30;100.00;96626.19;5064447;28;20469;-72
2024/03/04 00:41:04;;;;;;;24.40;15.73;;;5.80;99.10;;;5.15;100.00;96623.00;5064019;28;20793;-71
2024/03/04 00:43:31;;;;;;;26.17;17.63;;;5.70;99.20;;;5.00;100.00;96621.44;5059805;28;20816;-71
2024/03/04 00:46:00;;;;;;;24.33;17.50;;;5.60;99.20;;;4.90;100.00;96626.41;5066144;28;20835;-71
2024/03/04 00:48:27;;;;;;;20.67;14.87;;;5.50;99.60;;;4.77;100.00;96617.41;5057617;28;20496;-71
2024/03/04 00:50:56;;;;;;;25.53;15.97;;;5.40;99.90;;;4.73;100.00;96624.22;5057491;28;20493;-71
2024/03/04 00:53:24;;;;;;;22.20;16.83;;;5.30;99.90;;;4.62;100.00;96619.53;5048617;28;20536;-71
2024/03/04 00:55:51;;;;;;;24.57;16.97;;;5.20;99.90;;;4.67;100.00;96619.72;5057610;28;20454;-72
2024/03/04 00:58:19;;;;;;;25.23;15.67;;;5.20;99.90;;;4.50;100.00;96612.19;5063245;28;21330;-71
2024/03/04 01:00:47;;;;;;;21.50;14.90;;;5.10;99.90;;;4.47;100.00;96623.28;5057786;28;20456;-72
2024/03/04 01:03:16;;;;;;;21.40;14.90;;;5.10;99.90;;;4.59;100.00;96626.13;5062832;28;20465;-71
2024/03/04 01:05:45;;;;;;;21.70;15.07;;;5.10;99.90;;;4.50;100.00;96635.41;5062003;28;20584;-72
2024/03/04 01:08:14;;;;;;;19.70;15.17;;;5.10;99.90;;;4.41;100.00;96640.19;5062879;28;20472;-71
2024/03/04 01:10:43;;;;;;;24.23;15.90;;;5.00;99.90;;;4.32;100.00;96628.03;5061871;28;20452;-72
2024/03/04 01:13:13;;;;;;;27.03;16.43;;;4.90;99.90;;;4.30;100.00;96638.13;5061387;28;20465;-72
2024/03/04 01:15:42;;;;;;;24.10;16.27;;;4.90;99.90;;;4.28;100.00;96642.88;5062668;28;20457;-70
2024/03/04 01:18:11;;;;;;;21.70;14.60;;;4.90;99.90;;;4.29;100.00;96647.19;5046331;28;20502;-72
2024/03/04 01:20:39;;;;;;;26.57;16.17;;;4.80;99.90;;;4.25;100.00;96646.81;5063341;28;20552;-73
2024/03/04 01:23:08;;;;;;;23.33;15.70;;;4.80;99.90;;;4.33;100.00;96646.56;5054259;28;20939;-71
2024/03/04 01:25:36;;;;;;;25.07;15.83;;;4.80;99.90;;;4.44;100.00;96645.09;5065969;28;20954;-72
2024/03/04 01:28:05;;;;;;;25.33;16.33;;;4.90;99.90;;;4.42;100.00;96647.16;5064235;28;20541;-72
2024/03/04 01:30:32;;;;;;;25.20;16.67;;;4.90;99.90;;;4.22;100.00;96655.22;5060036;28;20483;-72
2024/03/04 01:33:02;;;;;;;20.50;16.70;;;4.80;99.90;;;4.17;100.00;96655.88;5062328;28;20473;-72
2024/03/04 01:35:29;;;;;;;18.43;14.73;;;4.70;99.90;;;4.06;100.00;96643.13;5057266;28;20457;-72
2024/03/04 01:37:58;;;;;;;24.30;15.90;;;4.60;99.90;;;4.15;100.00;96657.91;5063860;28;20441;-71
2024/03/04 01:40:26;;;;;;;20.67;15.60;;;4.60;99.90;;;4.28;100.00;96656.25;5057940;28;20461;-71
2024/03/04 01:42:56;;;;;;;22.53;15.37;;;4.70;99.90;;;4.40;100.00;96649.22;5055662;28;20464;-71
2024/03/04 01:45:25;;;;;;;21.40;15.43;;;4.80;99.90;;;4.51;100.00;96655.78;5063069;28;20454;-72
2024/03/04 01:47:59;;;;;;;22.90;16.87;;;4.90;99.90;;;4.42;100.00;96663.22;5064592;28;20535;-71
2024/03/04 01:50:29;;;;;;;22.20;15.40;;;4.90;99.90;;;4.15;100.00;96660.56;5056443;28;20441;-71
2024/03/04 01:52:59;;;;;;;24.40;15.37;;;4.70;99.90;;;4.01;100.00;96656.28;5051738;28;20461;-72
2024/03/04 01:55:31;;;;;;;25.37;16.77;;;4.60;99.90;;;3.97;100.00;96662.03;5060115;28;20486;-72
2024/03/04 01:57:58;;;;;;;25.60;16.00;;;4.50;99.90;;;4.13;100.00;96670.66;5065040;28;20449;-71
2024/03/04 02:00:26;;;;;;;24.87;16.00;;;4.60;99.90;;;4.23;100.00;96671.06;5059633;28;20814;-72
2024/03/04 02:02:55;;;;;;;19.30;15.50;;;4.70;99.90;;;4.07;100.00;96666.16;5074258;28;20522;-73
2024/03/04 02:05:26;;;;;;;25.37;15.47;;;4.60;99.90;;;4.04;100.00;96669.25;5058029;28;20460;-72
2024/03/04 02:07:53;;;;;;;22.20;15.10;;;4.60;99.90;;;3.89;100.00;96654.25;5064800;28;21223;-72
2024/03/04 02:10:26;;;;;;;21.10;15.30;;;4.60;99.90;;;4.16;100.00;96670.25;5062159;28;20940;-71
2024/03/04 02:12:54;;;;;;;23.90;15.70;;;4.60;99.90;;;4.29;100.00;96673.94;5058681;28;20456;-72
2024/03/04 02:15:21;;;;;;;29.50;17.33;;;4.80;99.90;;;4.27;100.00;96686.69;5061971;28;20825;-72
2024/03/04 02:17:48;;;;;;;24.30;17.20;;;4.80;99.90;;;4.25;100.00;96673.53;5065301;28;20457;-72
2024/03/04 02:20:19;;;;;;;28.93;17.90;;;4.80;99.90;;;4.41;100.00;96682.97;5037565;28;20454;-72
2024/03/04 02:22:47;;;;;;;25.67;17.17;;;4.90;99.90;;;4.57;100.00;96680.88;5062748;28;20465;-72
2024/03/04 02:25:15;;;;;;;29.27;18.37;;;5.10;99.90;;;4.64;100.00;96685.16;5057731;28;21016;-72
2024/03/04 02:27:43;;;;;;;24.30;16.30;;;5.20;99.90;;;4.63;100.00;96682.72;5058787;28;20474;-73
2024/03/04 02:30:14;;;;;;;24.93;16.73;;;5.20;99.90;;;4.49;100.00;96685.44;5058242;28;20493;-72
2024/03/04 02:32:42;;;;;;;25.80;16.80;;;5.10;99.90;;;4.39;100.00;96679.69;5060156;28;20520;-73
2024/03/04 02:35:10;;;;;;;29.10;18.07;;;5.00;99.90;;;4.23;100.00;96680.94;5056209;28;20477;-72
2024/03/04 02:37:38;;;;;;;25.03;16.50;;;4.80;99.90;;;4.29;100.00;96685.47;5062161;28;21053;-71
2024/03/04 02:40:09;;;;;;;22.87;16.63;;;4.80;99.90;;;4.27;100.00;96684.00;5059557;28;20494;-72
2024/03/04 02:42:36;;;;;;;27.40;17.30;;;4.80;99.90;;;4.08;100.00;96697.19;5056206;28;20445;-72
2024/03/04 02:45:05;;;;;;;21.00;15.93;;;4.70;99.90;;;4.22;100.00;96692.66;5072910;28;20471;-71
2024/03/04 02:47:32;;;;;;;23.33;16.50;;;4.70;99.90;;;3.89;100.00;96686.31;5062998;28;20517;-71
2024/03/04 02:49:59;;;;;;;23.63;16.67;;;4.60;99.90;;;3.83;100.00;96682.59;5060181;28;20825;-72
2024/03/04 02:52:26;;;;;;;23.23;16.23;;;4.50;99.90;;;3.91;100.00;96705.63;5053916;28;20469;-72
2024/03/04 02:54:55;;;;;;;30.57;18.33;;;4.40;99.90;;;3.86;100.00;96702.72;5061618;28;20460;-71
2024/03/04 02:57:26;;;;;;;23.90;16.00;;;4.40;99.90;;;3.77;100.00;96709.31;5062823;28;20456;-73
2024/03/04 02:59:53;;;;;;;27.00;16.03;;;4.30;99.90;;;3.93;100.00;96714.25;5058711;28;20449;-72
2024/03/04 03:02:21;;;;;;;25.33;16.67;;;4.40;99.90;;;3.96;100.00;96719.19;5058924;28;20464;-72
2024/03/04 03:04:48;;;;;;;27.00;16.57;;;4.50;99.90;;;3.79;100.00;96720.63;5054570;28;20449;-73
2024/03/04 03:07:15;;;;;;;27.33;17.90;;;4.40;99.90;;;3.65;100.00;96723.28;5059927;28;20455;-73
2024/03/04 03:09:42;;;;;;;33.07;16.97;;;4.20;99.90;;;3.61;100.00;96722.03;5061925;28;20497;-72
2024/03/04 03:12:11;;;;;;;26.03;18.23;;;4.20;99.90;;;3.79;100.00;96728.63;5060823;28;20457;-73
2024/03/04 03:14:39;;;;;;;20.33;15.27;;;4.20;99.90;;;3.69;100.00;96692.44;5057039;28;20524;-72
2024/03/04 03:17:07;;;;;;;27.00;18.57;;;4.40;99.90;;;3.93;100.00;96734.81;5063028;28;20453;-71
2024/03/04 03:19:36;;;;;;;25.57;18.13;;;4.50;99.90;;;4.01;100.00;96737.28;5057039;28;20449;-71
2024/03/04 03:22:04;;;;;;;25.47;16.30;;;4.50;99.90;;;4.01;100.00;96739.97;5058385;28;20524;-72
2024/03/04 03:24:31;;;;;;;26.50;17.00;;;4.50;99.90;;;3.87;100.00;96746.31;5041656;28;20482;-71
2024/03/04 03:26:59;;;;;;;27.80;15.87;;;4.50;99.90;;;3.76;100.00;96745.09;5063216;28;20468;-72
2024/03/04 03:29:26;;;;;;;24.73;17.23;;;4.40;99.90;;;3.58;100.00;96742.97;5061422;28;20538;-74
2024/03/04 03:31:57;;;;;;;26.20;17.30;;;4.20;99.90;;;3.46;100.00;96748.09;5074916;28;20457;-73
2024/03/04 03:34:24;;;;;;;25.60;17.60;;;4.10;99.90;;;3.47;100.00;96741.72;5058501;28;20452;-71
2024/03/04 03:36:51;;;;;;;24.40;16.90;;;4.00;99.90;;;3.59;100.00;96741.94;5059736;28;20483;-71
2024/03/04 03:39:19;;;;;;;29.30;19.00;;;4.10;99.90;;;3.60;100.00;96752.44;5061414;28;20448;-72
2024/03/04 03:41:46;;;;;;;23.53;16.40;;;4.10;99.90;;;3.43;100.00;96751.19;5064194;28;20561;-72
2024/03/04 03:44:16;;;;;;;30.37;17.50;;;4.00;99.90;;;3.20;100.00;96752.31;5055264;28;20551;-72
2024/03/04 03:46:46;;;;;;;28.57;17.53;;;3.80;99.90;;;2.94;100.00;96738.66;5059687;28;20462;-71
2024/03/04 03:49:16;;;;;;;24.00;16.90;;;3.70;99.90;;;2.94;100.00;96754.66;5056021;28;20483;-72
2024/03/04 03:51:43;;;;;;;21.97;16.60;;;3.50;99.90;;;2.83;100.00;96756.06;5056446;28;20543;-71
2024/03/04 03:54:11;;;;;;;25.50;16.77;;;3.50;99.90;;;2.74;100.00;96759.91;5061120;28;20448;-72
2024/03/04 03:56:41;;;;;;;25.10;17.00;;;3.40;99.90;;;2.76;100.00;96768.53;5064589;28;20456;-71
2024/03/04 03:59:08;;;;;;;25.30;17.20;;;3.30;99.90;;;2.91;100.00;96776.41;5062505;28;20463;-72
2024/03/04 04:01:36;;;;;;;25.90;17.13;;;3.40;99.90;;;2.76;100.00;96771.19;5061747;28;20452;-72
2024/03/04 04:04:04;;;;;;;24.90;17.73;;;3.40;99.90;;;2.62;100.00;96780.97;5050279;28;20484;-72
2024/03/04 04:06:32;;;;;;;26.40;17.07;;;3.30;99.90;;;2.45;100.00;96783.09;5059261;28;20487;-72
2024/03/04 04:09:00;;;;;;;28.10;17.03;;;3.20;99.90;;;2.43;100.00;96790.47;5060256;28;20477;-72
2024/03/04 04:11:28;;;;;;;29.80;18.53;;;3.20;99.90;;;2.41;100.00;96792.50;5060788;28;20437;-72
2024/03/04 04:13:57;;;;;;;27.90;17.77;;;3.20;99.90;;;2.36;100.00;96805.59;5057369;28;20542;-72
2024/03/04 04:16:28;;;;;;;25.10;16.50;;;3.20;99.90;;;2.35;100.00;96814.59;5059851;28;20542;-72
2024/03/04 04:18:56;;;;;;;26.23;17.80;;;3.20;99.90;;;2.35;100.00;96814.59;5039751;28;20480;-71
2024/03/04 04:21:26;;;;;;;34.50;19.10;;;3.20;99.90;;;2.36;100.00;96821.59;5057029;28;20460;-71
2024/03/04 04:23:55;;;;;;;28.67;18.30;;;3.20;99.90;;;2.37;100.00;96824.03;5052239;28;20471;-71
2024/03/04 04:26:26;;;;;;;29.30;18.33;;;3.10;99.90;;;2.30;100.00;96835.66;5058660;28;20480;-72
2024/03/04 04:28:55;;;;;;;28.63;17.10;;;3.00;99.90;;;2.21;100.00;96842.97;5059779;28;20502;-71
2024/03/04 04:31:28;;;;;;;31.23;18.03;;;3.00;99.90;;;2.21;100.00;96835.81;5060235;28;20457;-71
2024/03/04 04:33:59;;;;;;;30.77;19.10;;;3.00;99.90;;;2.28;100.00;96845.69;5058985;28;20448;-72
2024/03/04 04:36:26;;;;;;;29.27;19.37;;;3.10;99.90;;;1.83;100.00;96764.13;5062076;28;20787;-72
2024/03/04 04:38:58;;;;;;;28.60;19.10;;;3.10;99.90;;;2.32;100.00;96846.97;5051086;28;20458;-72
2024/03/04 04:41:25;;;;;;;33.73;19.70;;;3.10;99.90;;;2.31;100.00;96850.66;5054238;28;20505;-71
2024/03/04 04:43:55;;;;;;;31.43;17.80;;;3.10;99.90;;;2.36;100.00;96851.72;5062856;28;20460;-70
2024/03/04 04:46:22;;;;;;;33.97;19.10;;;3.10;99.90;;;2.45;100.00;96852.41;5045409;28;20460;-72
2024/03/04 04:48:50;;;;;;;24.80;17.67;;;3.10;99.90;;;2.48;100.00;96860.03;5064365;28;20485;-72
2024/03/04 04:51:20;;;;;;;26.40;16.97;;;3.10;99.90;;;2.38;100.00;96856.88;5063382;28;21180;-72
2024/03/04 04:53:48;;;;;;;29.50;19.60;;;3.10;99.90;;;2.30;100.00;96862.31;5056040;28;20467;-72
2024/03/04 04:56:21;;;;;;;32.50;17.90;;;3.00;99.90;;;2.17;100.00;96852.38;5084028;28;21258;-71
2024/03/04 04:58:51;;;;;;;24.17;18.30;;;2.90;99.90;;;2.07;100.00;96855.34;5064823;28;20440;-71
2024/03/04 05:01:36;;;;;;;27.47;18.97;;;2.70;99.90;;;2.15;100.00;96863.22;5062994;28;20460;-72
2024/03/04 05:04:06;;;;;;;29.03;19.20;;;2.80;99.90;;;2.28;100.00;96869.69;5057328;28;20459;-71
2024/03/04 05:06:34;;;;;;;28.30;19.80;;;2.90;99.90;;;2.38;100.00;96868.34;5058435;28;20506;-71
2024/03/04 05:09:01;;;;;;;31.20;19.20;;;3.00;99.90;;;2.25;100.00;96877.06;5059734;28;20878;-72
2024/03/04 05:11:30;;;;;;;32.20;22.10;;;2.90;99.90;;;2.14;100.00;96877.56;5064594;28;20460;-72
2024/03/04 05:13:58;;;;;;;32.90;21.80;;;2.80;99.90;;;2.03;100.00;96880.72;5062289;28;20482;-72
2024/03/04 05:16:25;;;;;;;30.60;20.43;;;2.80;99.90;;;1.89;100.00;96875.22;5061209;28;20453;-72
2024/03/04 05:18:56;;;;;;;36.57;21.73;;;2.80;99.90;;;2.01;100.00;96880.06;5060035;28;21034;-72
2024/03/04 05:21:23;;;;;;;41.53;22.83;;;2.80;99.90;;;2.04;100.00;96887.69;5050626;28;20444;-72
2024/03/04 05:23:50;;;;;;;41.03;22.53;;;2.80;99.90;;;2.04;100.00;96887.69;5056849;28;20548;-72
2024/03/04 05:26:17;;;;;;;38.20;24.17;;;2.80;99.90;;;2.05;100.00;96900.03;5059662;28;21262;-72
2024/03/04 05:28:46;;;;;;;37.53;21.63;;;2.80;99.90;;;2.04;100.00;96898.34;5064911;28;20469;-71
2024/03/04 05:31:13;;;;;;;37.07;23.20;;;2.70;99.90;;;2.17;100.00;96897.69;5058233;28;20509;-72
2024/03/04 05:33:45;;;;;;;33.27;22.50;;;2.80;99.90;;;2.22;100.00;96901.44;5058553;28;20960;-70
2024/03/04 05:36:17;;;;;;;36.50;22.33;;;2.80;99.90;;;2.18;100.00;96899.34;5060739;28;20952;-72
2024/03/04 05:38:44;;;;;;;36.57;22.30;;;2.80;99.90;;;2.16;100.00;96907.50;5034811;28;20453;-73
2024/03/04 05:41:12;;;;;;;35.80;21.40;;;2.90;99.90;;;2.29;100.00;96908.66;5063936;28;20522;-74
2024/03/04 05:43:45;;;;;;;39.03;22.50;;;3.00;99.90;;;2.38;100.00;96910.19;5047775;28;20467;-73
2024/03/04 05:46:15;;;;;;;41.20;23.30;;;3.10;99.90;;;2.50;100.00;96914.00;5058285;28;20980;-74
2024/03/04 05:48:46;;;;;;;32.80;20.90;;;3.10;99.90;;;2.39;100.00;96925.16;5060630;28;20508;-73
2024/03/04 05:51:13;;;;;;;35.03;21.87;;;3.10;99.90;;;2.41;100.00;96925.81;5063619;28;20460;-74
2024/03/04 05:53:41;;;;;;;37.70;21.97;;;3.00;99.90;;;2.42;100.00;96932.78;5062676;28;20794;-74
2024/03/04 05:56:10;;;;;;;37.80;24.17;;;3.00;99.90;;;2.34;100.00;96924.91;5051762;28;20462;-76
2024/03/04 05:58:39;;;;;;;36.27;22.63;;;3.10;99.90;;;1.84;100.00;96851.00;5054624;28;20460;-75
2024/03/04 06:01:06;;;;;;;43.53;26.30;;;3.10;99.90;;;2.42;100.00;96954.13;5058711;28;20460;-73
2024/03/04 06:03:34;;;;;;;44.37;25.77;;;3.10;99.90;;;2.30;100.00;96940.47;5061129;28;20567;-73
2024/03/04 06:06:01;;;;;;;36.17;22.27;;;3.00;99.90;;;2.26;100.00;96944.50;5063011;28;20448;-73
2024/03/04 06:08:29;;;;;;;41.60;23.17;;;2.90;99.90;;;2.22;100.00;96949.41;5058493;28;20489;-73
2024/03/04 06:10:57;;;;;;;42.10;25.20;;;2.90;99.90;;;2.43;100.00;96960.25;5059595;28;20977;-74
2024/03/04 06:13:24;;;;;;;36.20;23.10;;;3.00;99.90;;;2.51;100.00;96968.16;5056029;28;20457;-74
2024/03/04 06:15:51;;;;;;;32.90;23.10;;;3.10;99.90;;;2.50;100.00;96962.00;5061701;28;20452;-77
2024/03/04 06:18:18;;;;;;;44.30;25.30;;;3.10;99.90;;;2.59;100.00;96970.72;5056523;28;20865;-75
2024/03/04 06:20:47;;;;;;;31.93;23.50;;;3.10;99.90;;;2.55;100.00;96975.59;5058948;28;20874;-76
2024/03/04 06:23:14;;;;;;;36.90;24.00;;;3.20;99.90;;;3.40;100.00;96966.81;5059628;28;20451;-76
2024/03/04 06:25:41;;;;;;;36.77;24.43;;;3.70;99.90;;;3.17;100.00;96971.59;5065587;28;20461;-72
2024/03/04 06:28:09;;;;;;;53.97;31.73;;;3.80;99.90;;;3.09;100.00;96976.03;5062912;28;20459;-74
2024/03/04 06:30:36;;;;;;;33.50;22.87;;;3.80;99.90;;;2.97;100.00;96982.94;5060887;28;20852;-74
2024/03/04 06:33:03;;;;;;;37.20;25.17;;;3.70;99.90;;;2.89;100.00;96983.06;5057487;28;20467;-73
2024/03/04 06:35:30;;;;;;;33.70;22.50;;;3.60;99.90;;;2.87;100.00;96974.44;5059547;28;20449;-73
2024/03/04 06:38:01;;;;;;;33.30;21.67;;;3.50;99.90;;;2.94;100.00;96972.63;5057715;28;20468;-79
2024/03/04 06:40:29;;;;;;;36.20;23.17;;;3.60;99.90;;;3.04;100.00;96980.34;5062957;28;20460;-72
2024/03/04 06:42:56;;;;;;;34.00;22.27;;;3.70;99.90;;;3.11;100.00;96983.88;5062404;28;20456;-72
2024/03/04 06:45:24;;;;;;;34.30;23.37;;;3.70;99.90;;;3.14;100.00;96977.34;5061360;28;20488;-71
2024/03/04 06:47:53;;;;;;;30.33;21.50;;;3.70;99.90;;;3.19;100.00;96990.91;5063269;28;20506;-71
2024/03/04 06:50:20;;;;;;;34.40;22.17;;;3.80;99.90;;;3.19;100.00;96996.25;5042105;28;20476;-72
2024/03/04 06:52:48;;;;;;;34.80;22.33;;;3.80;99.90;;;3.15;100.00;96978.97;5062858;28;20499;-71
2024/03/04 06:55:17;;;;;;;31.27;22.10;;;3.80;99.90;;;3.33;100.00;96991.81;5040946;28;20449;-72
2024/03/04 06:57:44;;;;;;;34.33;22.07;;;3.90;99.90;;;3.51;100.00;96994.84;5063652;28;20444;-72
2024/03/04 07:00:13;;;;;;;36.13;23.30;;;4.00;99.90;;;3.64;100.00;96991.44;5061350;28;20451;-78
2024/03/04 07:02:40;;;;;;;35.33;24.20;;;4.20;99.90;;;3.76;100.00;96997.03;5061311;28;20487;-68
2024/03/04 07:05:09;;;;;;;38.40;24.30;;;4.30;99.90;;;3.78;100.00;96999.53;5062598;28;20458;-68
2024/03/04 07:07:36;;;;;;;31.10;22.60;;;4.40;99.90;;;4.01;100.00;97006.41;5063512;28;21215;-73
2024/03/04 07:10:04;;;;;;;39.83;25.23;;;4.50;99.90;;;4.15;100.00;97010.00;5061747;28;20469;-71
2024/03/04 07:12:33;;;;;;;37.33;24.50;;;4.70;99.90;;;4.34;100.00;97011.91;5080311;28;20450;-72
2024/03/04 07:15:01;;;;;;;35.67;23.97;;;4.80;99.90;;;4.42;100.00;97004.75;5055593;28;20475;-74
2024/03/04 07:17:28;;;;;;;36.10;23.97;;;4.90;99.90;;;4.59;100.00;97015.91;5052431;28;20442;-71
2024/03/04 07:19:56;;;;;;;34.53;23.60;;;5.10;99.90;;;4.66;100.00;97016.75;5055543;28;20472;-83
2024/03/04 07:22:23;;;;;;;39.83;24.23;;;5.20;99.90;;;4.75;100.00;97031.59;5057275;28;20451;-80
2024/03/04 07:24:50;;;;;;;29.50;21.80;;;5.30;99.90;;;4.73;100.00;97027.47;5078117;28;20498;-72
2024/03/04 07:27:18;;;;;;;35.33;22.90;;;5.30;99.90;;;4.65;100.00;97009.75;5056684;28;20440;-72
2024/03/04 07:29:46;;;;;;;31.43;19.73;;;5.40;98.60;;;4.76;100.00;97027.88;5060468;28;20470;-71
2024/03/04 07:32:13;;;;;;;26.10;19.67;;;5.40;97.70;;;4.77;100.00;97018.81;5057789;28;20461;-71
2024/03/04 07:34:42;;;;;;;31.20;20.80;;;5.40;97.80;;;4.73;100.00;97020.25;5053124;28;20467;-71
2024/03/04 07:37:09;;;;;;;32.00;21.27;;;5.50;97.50;;;4.90;100.00;97039.44;5057625;28;20464;-72
2024/03/04 07:39:36;;;;;;;29.33;20.40;;;5.50;97.70;;;5.03;100.00;97037.81;5052444;28;20538;-72
2024/03/04 07:42:04;;;;;;;29.57;21.07;;;5.60;97.80;;;5.11;100.00;97042.97;5052197;28;20457;-71
2024/03/04 07:44:31;;;;;;;27.20;18.00;;;5.70;98.20;;;5.07;100.00;97039.88;5055833;28;20871;-71
2024/03/04 07:47:00;;;;;;;28.77;20.27;;;5.70;97.40;;;5.25;100.00;97046.50;5057783;28;20462;-72
2024/03/04 07:49:27;;;;;;;24.17;18.70;;;5.80;97.10;;;5.44;100.00;97050.19;5054344;28;20546;-72
2024/03/04 07:51:54;;;;;;;25.80;18.83;;;5.90;97.10;;;5.56;99.40;97063.81;5058847;28;20467;-71
2024/03/04 07:54:21;;;;;;;27.50;19.43;;;6.10;96.60;;;5.67;97.18;97055.13;5063559;28;20454;-71
2024/03/04 07:56:49;;;;;;;27.13;18.47;;;6.20;94.90;;;5.74;95.49;97062.34;5065275;28;20445;-71
2024/03/04 07:59:17;;;;;;;25.10;18.17;;;6.30;93.30;;;5.72;95.28;97064.44;5038826;28;20473;-71
2024/03/04 08:01:49;;;;;;;27.93;19.10;;;6.30;92.60;;;5.79;95.23;97063.38;5065285;28;20449;-71
2024/03/04 08:04:17;;;;;;;26.03;17.97;;;6.40;92.50;;;5.85;94.75;97074.31;5046175;28;20815;-71
2024/03/04 08:06:44;;;;;;;25.80;17.50;;;6.50;92.40;;;6.11;94.06;97076.13;5059909;28;20458;-72
2024/03/04 08:09:13;;;;;;;23.83;17.93;;;6.60;92.40;;;6.08;94.14;97082.75;5061698;28;20522;-69
2024/03/04 08:11:42;;;;;;;26.17;18.60;;;6.70;91.90;;;6.13;93.67;97087.47;5082219;28;20486;-69
2024/03/04 08:14:10;;;;;;;26.70;19.33;;;6.80;91.80;;;6.30;93.18;97084.38;5063951;28;20450;-70
2024/03/04 08:16:38;;;;;;;27.23;18.33;;;6.90;91.70;;;6.71;91.13;97091.22;5059852;28;20496;-70
2024/03/04 08:19:05;;;;;;;23.73;17.67;;;7.20;91.50;;;6.90;89.56;97088.63;5057359;28;20454;-69
2024/03/04 08:21:34;;;;;;;25.40;19.23;;;7.40;90.90;;;6.75;89.15;97067.44;5060982;28;20460;-69
2024/03/04 08:24:02;;;;;;;25.10;16.73;;;7.50;90.70;;;6.86;88.70;97052.53;5059581;28;21232;-69
2024/03/04 08:26:29;;;;;;;26.00;18.47;;;7.60;90.10;;;6.95;88.33;97092.31;5053890;28;20493;-69
2024/03/04 08:28:58;;;;;;;25.97;17.90;;;7.60;88.90;;;6.90;88.13;97086.78;5083397;28;20939;-69
2024/03/04 08:31:25;;;;;;;21.63;16.37;;;7.60;88.40;;;6.62;89.64;97097.88;5071516;28;20454;-69
2024/03/04 08:33:52;;;;;;;23.23;17.90;;;7.50;88.50;;;6.79;89.78;97098.19;5057734;28;20892;-69
2024/03/04 08:36:21;;;;;;;23.03;17.30;;;7.50;89.30;;;6.76;89.37;97107.53;5058694;28;20490;-70
2024/03/04 08:38:50;;;;;;;23.83;17.77;;;7.50;89.10;;;6.80;89.55;97114.09;5061891;28;20538;-68
2024/03/04 08:41:18;;;;;;;28.17;17.97;;;7.40;89.10;;;6.96;88.64;97117.34;5060812;28;20471;-68
2024/03/04 08:43:47;;;;;;;22.50;17.67;;;7.60;89.20;;;6.98;88.71;97112.56;5058672;28;20460;-67
2024/03/04 08:46:14;;;;;;;24.17;18.27;;;7.60;89.00;;;7.01;89.03;97114.81;5058137;28;20462;-69
2024/03/04 08:48:41;;;;;;;26.50;19.00;;;7.60;89.10;;;7.42;88.41;97114.59;5059269;28;20974;-71
2024/03/04 08:51:11;;;;;;;23.00;18.00;;;7.90;89.80;;;7.41;86.69;97105.69;5058435;28;20485;-69
2024/03/04 08:53:40;;;;;;;22.53;17.63;;;8.10;88.20;;;7.75;85.77;97110.81;5059061;28;20449;-69
2024/03/04 08:56:09;;;;;;;22.20;17.00;;;8.30;88.00;;;8.05;84.28;97127.13;5053142;28;20470;-69
2024/03/04 08:58:37;;;;;;;23.37;17.50;;;8.60;87.60;;;8.31;82.98;97129.78;5059815;28;20827;-71
2024/03/04 09:01:05;;;;;;;23.23;16.30;;;8.80;87.00;;;8.37;83.25;97126.19;5059324;28;20461;-69
2024/03/04 09:03:32;;;;;;;20.60;16.73;;;9.00;86.50;;;8.64;82.29;97142.94;5061911;28;21104;-69
2024/03/04 09:05:59;;;;;;;19.83;15.97;;;9.10;85.90;;;8.59;81.02;97132.00;5062372;28;20462;-71
2024/03/04 09:08:27;;;;;;;21.40;16.40;;;9.20;85.20;;;8.83;80.51;97147.47;5055790;28;20456;-71
2024/03/04 09:10:56;;;;;;;21.77;16.70;;;9.30;85.20;;;8.36;80.41;97066.16;5064869;28;20544;-69
2024/03/04 09:13:26;;;;;;;19.50;15.40;;;9.40;85.00;;;8.62;80.77;97142.31;5044944;28;20508;-71
2024/03/04 09:15:54;;;;;;;20.30;16.10;;;9.30;84.50;;;8.46;81.46;97148.25;5063373;28;20985;-70
2024/03/04 09:18:22;;;;;;;22.23;16.60;;;9.20;84.80;;;8.69;80.94;97146.81;5061086;28;20570;-70
2024/03/04 09:20:49;;;;;;;20.77;15.10;;;9.30;84.70;;;8.59;80.62;97152.72;5061215;28;20444;-71
2024/03/04 09:23:17;;;;;;;20.20;15.87;;;9.30;84.20;;;8.42;81.60;97157.81;5057554;28;20466;-69
2024/03/04 09:25:45;;;;;;;20.60;17.10;;;9.20;84.40;;;8.44;81.46;97155.72;5055909;28;20871;-68
2024/03/04 09:28:13;;;;;;;27.50;18.00;;;9.20;84.50;;;8.61;80.69;97142.53;5060211;28;20463;-69
2024/03/04 09:30:41;;;;;;;22.30;17.60;;;9.30;84.50;;;8.88;79.54;97164.59;5058051;28;20489;-70
2024/03/04 09:33:11;;;;;;;21.20;16.57;;;9.50;84.40;;;8.85;80.52;97162.38;5059313;28;20489;-70
2024/03/04 09:35:39;;;;;;;21.00;16.60;;;9.40;84.50;;;8.86;79.74;97164.00;5062523;28;20969;-71
2024/03/04 09:38:09;;;;;;;21.03;17.23;;;9.50;84.00;;;8.74;79.60;97161.25;5062212;28;20517;-70
2024/03/04 09:40:44;;;;;;;22.30;16.43;;;9.40;83.70;;;8.78;80.42;97172.38;5063831;28;20513;-71
2024/03/04 09:43:13;;;;;;;21.37;15.97;;;9.30;84.20;;;8.77;79.80;97181.50;5060102;28;20455;-70
2024/03/04 09:45:49;;;;;;;21.37;16.77;;;9.30;84.10;;;8.89;79.98;97181.59;5059514;28;20457;-70
2024/03/04 09:48:18;;;;;;;20.23;16.30;;;9.50;84.10;;;8.73;78.81;97180.31;5059751;28;20455;-71
2024/03/04 09:50:46;;;;;;;22.37;16.93;;;9.40;83.70;;;8.47;80.31;97183.03;5058034;28;20477;-70
2024/03/04 09:53:15;;;;;;;21.20;15.90;;;9.20;83.90;;;8.56;80.68;97180.06;5057276;28;20462;-70
2024/03/04 09:55:43;;;;;;;21.57;16.80;;;9.20;84.10;;;8.47;81.35;97183.03;5059626;28;20449;-70
2024/03/04 09:58:14;;;;;;;20.50;16.73;;;9.10;84.10;;;8.85;79.17;97193.84;5061533;28;20468;-70
2024/03/04 10:00:43;;;;;;;22.93;17.40;;;9.30;84.30;;;8.70;80.25;97191.53;5056980;28;20519;-70
2024/03/04 10:03:10;;;;;;;22.57;17.87;;;9.30;83.80;;;8.65;80.86;97189.50;5053469;28;20479;-70
2024/03/04 10:05:42;;;;;;;21.00;16.53;;;9.20;84.20;;;8.76;80.18;97182.56;5059542;28;20474;-70
2024/03/04 10:08:11;;;;;;;24.60;19.40;;;9.40;84.30;;;9.09;79.23;97194.81;5058711;28;20899;-70
2024/03/04 10:10:41;;;;;;;23.50;17.63;;;9.60;84.30;;;9.07;78.21;97191.53;5060756;28;20466;-70
2024/03/04 10:13:15;;;;;;;23.33;17.87;;;9.70;83.80;;;8.91;79.76;97198.38;5041348;28;20835;-69
2024/03/04 10:15:49;;;;;;;21.87;18.17;;;9.50;83.90;;;8.95;78.89;97171.78;5060359;28;20445;-70
2024/03/04 10:18:18;;;;;;;26.23;19.47;;;9.60;83.90;;;8.89;79.63;97197.75;5065636;28;20456;-70
2024/03/04 10:20:46;;;;;;;30.07;19.60;;;9.50;83.60;;;8.83;79.36;97217.50;5065160;28;20503;-70